Time;durP1;ratioP1;P1;durP2;ratioP2;P2;SDS_P1;SDS_P2;PMS_P1;PMS_P2;Temp;Humidity;BMP_temperature;BMP_pressure;BME280_temperature;BME280_humidity;BME280_pressure;Samples;Min_cycle;Max_cycle;Signal;HPM_P1;HPM_P2
2022/03/04 00:02:21;;;;;;;22.90;12.57;;;;;;;0.81;72.82;95297.07;1790736;80;20990;-70
2022/03/04 00:04:47;;;;;;;21.67;13.33;;;;;;;0.83;72.82;95294.08;1790650;80;21026;-69
2022/03/04 00:07:14;;;;;;;24.20;13.97;;;;;;;0.77;73.44;95290.50;1790621;80;21520;-69
2022/03/04 00:09:41;;;;;;;27.93;15.20;;;;;;;0.79;73.22;95297.47;1790756;80;21019;-69
2022/03/04 00:12:09;;;;;;;27.37;16.60;;;;;;;0.78;73.44;95291.84;1790418;80;20995;-70
2022/03/04 00:14:35;;;;;;;28.63;16.30;;;;;;;0.82;73.10;95295.34;1790733;80;21054;-69
2022/03/04 00:17:02;;;;;;;24.33;14.70;;;;;;;0.80;73.27;95296.60;1790733;80;21011;-69
2022/03/04 00:19:28;;;;;;;24.47;12.93;;;;;;;0.72;73.70;95291.73;1790591;80;20994;-69
2022/03/04 00:21:55;;;;;;;23.93;13.77;;;;;;;0.75;73.36;95296.09;1790639;80;21049;-69
2022/03/04 00:24:23;;;;;;;20.17;12.57;;;;;;;0.75;73.46;95291.77;1790624;80;21002;-70
2022/03/04 00:26:50;;;;;;;24.27;13.27;;;;;;;0.75;73.55;95290.91;1790663;80;20990;-69
2022/03/04 00:29:18;;;;;;;24.67;14.23;;;;;;;0.73;73.73;95293.50;1787751;80;21560;-69
2022/03/04 00:31:45;;;;;;;27.57;14.93;;;;;;;0.74;73.50;95287.88;1782893;80;21002;-69
2022/03/04 00:34:11;;;;;;;20.33;11.30;;;;;;;0.75;73.70;95287.01;1782992;80;21468;-70
2022/03/04 00:36:40;;;;;;;20.00;10.43;;;;;;;0.74;73.85;95287.88;1782876;80;20975;-69
2022/03/04 00:39:11;;;;;;;20.07;11.03;;;;;;;0.76;74.13;95287.48;1782645;80;21069;-70
2022/03/04 00:41:38;;;;;;;16.20;11.10;;;;;;;0.72;74.22;95277.45;1754691;80;20979;-69
2022/03/04 00:44:06;;;;;;;19.07;11.90;;;;;;;0.75;74.28;95276.63;1783038;80;21504;-69
2022/03/04 00:46:33;;;;;;;17.83;10.80;;;;;;;0.68;75.09;95273.48;1783219;80;21015;-69
2022/03/04 00:49:00;;;;;;;18.87;11.33;;;;;;;0.62;74.95;95270.39;1782869;80;21018;-70
2022/03/04 00:51:27;;;;;;;21.27;11.37;;;;;;;0.60;74.87;95263.86;1782743;80;21062;-69
2022/03/04 00:53:53;;;;;;;19.73;11.70;;;;;;;0.61;74.58;95267.36;1782533;80;21047;-69
2022/03/04 00:56:21;;;;;;;18.77;11.67;;;;;;;0.63;74.67;95264.33;1783097;80;21504;-69
2022/03/04 00:58:47;;;;;;;20.60;11.47;;;;;;;0.71;74.63;95261.44;1782962;80;21002;-69
2022/03/04 01:01:14;;;;;;;21.10;12.47;;;;;;;0.80;74.30;95263.27;1782734;80;21018;-69
2022/03/04 01:03:40;;;;;;;21.30;12.60;;;;;;;0.80;73.90;95261.97;1783001;80;21049;-70
2022/03/04 01:06:08;;;;;;;20.43;11.80;;;;;;;0.82;73.88;95271.97;1782949;80;21022;-69
2022/03/04 01:08:34;;;;;;;18.77;10.67;;;;;;;0.79;73.59;95258.52;1782801;80;21438;-69
2022/03/04 01:11:01;;;;;;;20.93;12.20;;;;;;;0.70;74.25;95262.70;1782956;80;21057;-69
2022/03/04 01:13:28;;;;;;;24.13;12.33;;;;;;;0.63;74.85;95254.84;1782872;80;21003;-69
2022/03/04 01:15:55;;;;;;;23.60;13.57;;;;;;;0.63;74.96;95260.03;1782760;80;20995;-69
2022/03/04 01:18:23;;;;;;;17.87;11.40;;;;;;;0.67;74.40;95257.47;1782856;80;21007;-70
2022/03/04 01:20:49;;;;;;;18.70;10.60;;;;;;;0.69;74.45;95259.67;1783010;80;21461;-70
2022/03/04 01:23:16;;;;;;;18.40;10.57;;;;;;;0.77;74.63;95259.34;1782685;80;21034;-70
2022/03/04 01:25:43;;;;;;;17.40;10.37;;;;;;;0.82;74.19;95256.38;1782975;80;21003;-70
2022/03/04 01:28:10;;;;;;;21.10;12.60;;;;;;;0.84;74.10;95256.84;1782544;80;21098;-70
2022/03/04 01:30:37;;;;;;;21.60;12.27;;;;;;;0.83;73.45;95255.11;1788969;80;21014;-70
2022/03/04 01:33:03;;;;;;;20.57;11.70;;;;;;;0.75;73.61;95251.52;1790595;80;21010;-70
2022/03/04 01:35:30;;;;;;;21.97;12.00;;;;;;;0.68;74.19;95254.91;1790484;80;21069;-70
2022/03/04 01:37:57;;;;;;;21.13;10.90;;;;;;;0.60;73.81;95249.58;1790692;80;21541;-70
2022/03/04 01:40:23;;;;;;;22.53;11.63;;;;;;;0.60;73.85;95250.88;1790574;80;21063;-69
2022/03/04 01:42:50;;;;;;;18.90;11.37;;;;;;;0.58;73.84;95252.61;1790491;80;21476;-69
2022/03/04 01:45:17;;;;;;;22.90;12.77;;;;;;;0.58;74.01;95247.81;1790659;80;21078;-69
2022/03/04 01:47:44;;;;;;;21.20;12.47;;;;;;;0.58;73.98;95244.81;1790606;80;21006;-69
2022/03/04 01:50:11;;;;;;;19.03;12.00;;;;;;;0.52;74.84;95245.14;1790632;80;21082;-69
2022/03/04 01:52:38;;;;;;;22.93;12.40;;;;;;;0.44;74.46;95242.44;1790497;80;21002;-69
2022/03/04 01:55:08;;;;;;;22.70;12.90;;;;;;;0.47;74.29;95241.18;1790602;80;21010;-69
2022/03/04 01:57:36;;;;;;;23.10;12.43;;;;;;;0.44;74.97;95246.33;1790529;80;20963;-69
2022/03/04 02:00:07;;;;;;;22.37;10.03;;;;;;;0.38;74.80;95243.66;1790749;80;21010;-69
2022/03/04 02:02:35;;;;;;;20.02;11.43;;;;;;;0.29;74.71;95244.38;1790291;80;20978;-69
2022/03/04 02:05:02;;;;;;;21.20;12.00;;;;;;;0.19;75.42;95248.98;1790682;80;20971;-70
2022/03/04 02:07:29;;;;;;;23.23;12.77;;;;;;;0.13;76.39;95243.72;1790617;80;20994;-70
2022/03/04 02:09:56;;;;;;;21.77;12.60;;;;;;;0.15;76.50;95243.28;1790835;80;20975;-69
2022/03/04 02:12:22;;;;;;;23.13;11.90;;;;;;;0.25;76.23;95242.58;1790787;80;21018;-69
2022/03/04 02:14:49;;;;;;;17.73;10.93;;;;;;;0.33;75.67;95238.83;1790738;80;21045;-69
2022/03/04 02:17:16;;;;;;;19.33;10.97;;;;;;;0.36;75.07;95238.44;1790604;80;21074;-69
2022/03/04 02:19:42;;;;;;;20.67;11.50;;;;;;;0.31;74.61;95245.28;1790824;80;21464;-69
2022/03/04 02:22:09;;;;;;;23.60;13.03;;;;;;;0.21;75.69;95236.91;1790835;80;20971;-69
2022/03/04 02:24:36;;;;;;;24.90;14.80;;;;;;;0.21;76.30;95238.21;1790214;80;21026;-70
2022/03/04 02:27:04;;;;;;;25.60;12.80;;;;;;;0.21;76.25;95233.02;1790935;80;21006;-69
2022/03/04 02:29:34;;;;;;;18.73;10.73;;;;;;;0.27;76.46;95241.31;1790866;80;21066;-69
2022/03/04 02:32:02;;;;;;;18.83;11.30;;;;;;;0.26;76.21;95239.59;1790858;80;21008;-69
2022/03/04 02:34:29;;;;;;;22.97;11.57;;;;;;;0.18;75.69;95239.03;1790826;80;21015;-69
2022/03/04 02:36:57;;;;;;;16.57;10.73;;;;;;;0.24;75.90;95239.98;1790852;80;21022;-69
2022/03/04 02:39:24;;;;;;;19.07;10.90;;;;;;;0.24;75.69;95245.17;1790422;80;21018;-69
2022/03/04 02:41:50;;;;;;;31.67;11.83;;;;;;;0.25;75.96;95244.30;1790758;80;21054;-69
2022/03/04 02:44:17;;;;;;;22.80;11.73;;;;;;;0.29;75.97;95247.41;1790696;80;21014;-69
2022/03/04 02:46:44;;;;;;;19.47;10.63;;;;;;;0.28;75.93;95250.83;1790511;80;20990;-69
2022/03/04 02:49:11;;;;;;;18.63;10.90;;;;;;;0.25;75.69;95245.61;1790825;80;21006;-69
2022/03/04 02:51:39;;;;;;;17.30;10.40;;;;;;;0.23;75.70;95240.41;1790747;80;21002;-69
2022/03/04 02:54:06;;;;;;;23.80;10.93;;;;;;;0.30;76.13;95242.66;1790495;80;20967;-69
2022/03/04 02:56:33;;;;;;;17.80;10.50;;;;;;;0.40;75.68;95244.13;1790745;80;21474;-69
2022/03/04 02:59:00;;;;;;;16.47;9.53;;;;;;;0.44;75.32;95246.33;1790795;80;21029;-70
2022/03/04 03:01:26;;;;;;;16.67;9.60;;;;;;;0.38;75.04;95249.72;1790459;80;20998;-69
2022/03/04 03:03:53;;;;;;;18.80;10.03;;;;;;;0.40;75.29;95249.33;1790754;80;21033;-69
2022/03/04 03:06:20;;;;;;;17.57;10.47;;;;;;;0.43;75.31;95246.77;1790590;80;21524;-70
2022/03/04 03:08:47;;;;;;;17.20;10.70;;;;;;;0.36;76.12;95250.12;1790561;80;21016;-69
2022/03/04 03:11:13;;;;;;;18.50;10.17;;;;;;;0.36;76.29;95257.91;1790843;80;21417;-69
2022/03/04 03:13:40;;;;;;;17.30;11.03;;;;;;;0.31;76.68;95250.47;1790629;80;21022;-69
2022/03/04 03:16:07;;;;;;;19.30;10.40;;;;;;;0.32;76.67;95257.40;1790811;80;20982;-69
2022/03/04 03:18:35;;;;;;;16.50;9.37;;;;;;;0.34;76.40;95257.44;1790694;80;21070;-69
2022/03/04 03:21:01;;;;;;;20.47;10.47;;;;;;;0.31;76.03;95254.80;1790757;80;20998;-69
2022/03/04 03:23:27;;;;;;;18.07;10.37;;;;;;;0.28;76.47;95253.03;1790580;80;21062;-69
2022/03/04 03:25:54;;;;;;;18.13;11.13;;;;;;;0.29;76.84;95256.06;1790784;80;21041;-69
2022/03/04 03:28:21;;;;;;;20.93;11.83;;;;;;;0.28;77.90;95258.62;1790722;80;21086;-69
2022/03/04 03:30:47;;;;;;;19.70;11.67;;;;;;;0.23;78.35;95262.47;1790682;80;21022;-69
2022/03/04 03:33:14;;;;;;;21.40;12.17;;;;;;;0.19;77.78;95260.66;1790399;80;20967;-69
2022/03/04 03:35:42;;;;;;;22.30;12.30;;;;;;;0.17;78.52;95259.75;1790338;80;21730;-69
2022/03/04 03:38:08;;;;;;;21.93;13.20;;;;;;;0.17;78.62;95259.75;1790651;80;21010;-70
2022/03/04 03:40:35;;;;;;;24.83;13.17;;;;;;;0.22;78.44;95263.30;1790756;80;21070;-69
2022/03/04 03:43:02;;;;;;;24.27;13.47;;;;;;;0.27;78.22;95260.34;1790772;80;21564;-69
2022/03/04 03:45:29;;;;;;;18.47;11.63;;;;;;;0.30;77.82;95256.49;1790746;80;21070;-69
2022/03/04 03:47:56;;;;;;;18.60;11.17;;;;;;;0.32;77.54;95259.13;1790816;80;20993;-69
2022/03/04 03:50:22;;;;;;;17.40;11.07;;;;;;;0.26;77.62;95257.75;1790683;80;21525;-69
2022/03/04 03:52:49;;;;;;;18.53;11.63;;;;;;;0.22;77.51;95256.81;1790815;80;21021;-69
2022/03/04 03:55:15;;;;;;;17.23;9.87;;;;;;;0.23;77.67;95254.68;1790363;80;21045;-72
2022/03/04 03:57:42;;;;;;;17.70;11.33;;;;;;;0.20;78.08;95259.40;1790762;80;21004;-69
2022/03/04 04:00:10;;;;;;;19.23;11.10;;;;;;;0.13;78.21;95263.17;1790778;80;20999;-69
2022/03/04 04:02:41;;;;;;;19.67;11.83;;;;;;;0.14;78.10;95260.58;1790651;80;21033;-69
2022/03/04 04:05:11;;;;;;;21.10;12.57;;;;;;;0.17;78.46;95261.05;1790624;80;21094;-69
2022/03/04 04:07:38;;;;;;;22.97;12.03;;;;;;;0.21;78.42;95260.27;1790844;80;21529;-69
2022/03/04 04:10:05;;;;;;;22.17;12.67;;;;;;;0.18;78.83;95264.12;1790635;80;20959;-69
2022/03/04 04:12:31;;;;;;;24.20;13.77;;;;;;;0.09;79.01;95256.17;1790728;80;21075;-69
2022/03/04 04:14:58;;;;;;;25.17;14.90;;;;;;;0.14;78.51;95258.42;1790677;80;20986;-69
2022/03/04 04:17:25;;;;;;;24.77;15.50;;;;;;;0.07;78.27;95263.92;1790664;80;20986;-69
2022/03/04 04:19:53;;;;;;;26.33;16.07;;;;;;;0.06;78.17;95266.08;1790729;80;21018;-69
2022/03/04 04:22:21;;;;;;;26.83;16.00;;;;;;;0.03;78.20;95266.03;1790651;80;21011;-70
2022/03/04 04:24:47;;;;;;;29.40;15.67;;;;;;;0.01;78.12;95264.27;1790490;80;21006;-70
2022/03/04 04:27:13;;;;;;;29.43;15.40;;;;;;;-0.06;78.12;95275.81;1790603;80;21042;-70
2022/03/04 04:29:40;;;;;;;30.37;16.77;;;;;;;-0.16;78.60;95276.51;1790054;80;20966;-69
2022/03/04 04:32:09;;;;;;;28.63;16.50;;;;;;;-0.22;79.06;95277.70;1783075;80;21055;-68
2022/03/04 04:34:38;;;;;;;30.13;17.00;;;;;;;-0.24;79.02;95276.80;1782916;80;21015;-67
2022/03/04 04:37:05;;;;;;;31.13;16.80;;;;;;;-0.26;78.97;95278.49;1782610;80;21090;-67
2022/03/04 04:39:32;;;;;;;34.07;17.23;;;;;;;-0.26;79.16;95273.30;1782624;80;21030;-67
2022/03/04 04:41:58;;;;;;;29.10;17.27;;;;;;;-0.33;79.70;95272.34;1783074;80;21480;-68
2022/03/04 04:44:24;;;;;;;25.90;15.43;;;;;;;-0.35;80.01;95282.20;1782889;80;20995;-68
2022/03/04 04:46:51;;;;;;;28.10;16.63;;;;;;;-0.35;79.79;95279.61;1782632;80;21098;-67
2022/03/04 04:49:18;;;;;;;29.83;16.97;;;;;;;-0.39;80.16;95276.53;1783021;80;20990;-68
2022/03/04 04:51:45;;;;;;;31.93;17.37;;;;;;;-0.39;80.38;95279.12;1782747;80;21050;-68
2022/03/04 04:54:11;;;;;;;31.43;18.70;;;;;;;-0.41;80.43;95278.22;1782847;80;20971;-68
2022/03/04 04:56:38;;;;;;;33.70;17.83;;;;;;;-0.38;80.38;95284.31;1782953;80;21007;-67
2022/03/04 04:59:05;;;;;;;28.30;17.07;;;;;;;-0.37;80.61;95282.20;1782511;80;21066;-68
2022/03/04 05:01:32;;;;;;;31.97;18.53;;;;;;;-0.32;80.72;95283.16;1783027;80;21000;-67
2022/03/04 05:03:59;;;;;;;30.80;16.97;;;;;;;-0.29;80.54;95275.85;1782687;80;21019;-68
2022/03/04 05:06:26;;;;;;;36.23;18.37;;;;;;;-0.28;80.33;95283.67;1782748;80;21026;-68
2022/03/04 05:08:53;;;;;;;27.83;17.17;;;;;;;-0.28;80.45;95283.67;1782509;80;21061;-68
2022/03/04 05:11:19;;;;;;;30.53;16.67;;;;;;;-0.24;80.30;95279.40;1782967;80;21489;-67
2022/03/04 05:13:47;;;;;;;28.50;17.83;;;;;;;-0.22;80.23;95279.01;1783039;80;20998;-68
2022/03/04 05:16:13;;;;;;;29.73;16.93;;;;;;;-0.18;80.07;95282.52;1782954;80;21441;-68
2022/03/04 05:18:40;;;;;;;29.77;17.50;;;;;;;-0.19;80.01;95286.83;1782978;80;21027;-68
2022/03/04 05:21:07;;;;;;;30.70;17.57;;;;;;;-0.18;80.05;95279.92;1782886;80;20998;-68
2022/03/04 05:26:19;;;;;;;30.43;17.33;;;;;;;-0.19;80.11;95280.34;1783040;80;21465;-68
2022/03/04 05:28:45;;;;;;;29.63;17.10;;;;;;;-0.19;80.01;95285.53;1782543;80;21031;-68
2022/03/04 05:31:12;;;;;;;28.87;16.97;;;;;;;-0.20;79.97;95289.38;1787567;80;21011;-68
2022/03/04 05:33:38;;;;;;;31.40;17.83;;;;;;;-0.19;80.08;95288.13;1790402;80;21098;-68
2022/03/04 05:36:05;;;;;;;25.27;15.90;;;;;;;-0.17;79.95;95287.73;1790918;80;20975;-67
2022/03/04 05:38:32;;;;;;;33.33;18.33;;;;;;;-0.16;79.82;95293.36;1790977;80;20959;-68
2022/03/04 05:40:59;;;;;;;30.93;17.23;;;;;;;-0.19;79.86;95292.45;1790622;80;20986;-68
2022/03/04 05:43:26;;;;;;;32.57;18.07;;;;;;;-0.17;79.76;95299.41;1790523;80;21022;-67
2022/03/04 05:45:52;;;;;;;27.77;17.10;;;;;;;-0.13;79.79;95304.20;1790642;80;21011;-67
2022/03/04 05:48:20;;;;;;;40.47;20.87;;;;;;;-0.17;79.61;95299.41;1790397;80;21065;-67
2022/03/04 05:50:46;;;;;;;35.80;20.53;;;;;;;-0.14;79.64;95307.23;1790917;80;20974;-67
2022/03/04 05:53:13;;;;;;;31.33;19.20;;;;;;;-0.13;79.64;95303.78;1790412;80;21077;-68
2022/03/04 05:55:39;;;;;;;34.17;18.93;;;;;;;-0.11;79.68;95302.09;1790455;80;21022;-68
2022/03/04 05:58:06;;;;;;;30.90;18.27;;;;;;;-0.10;79.74;95302.56;1790417;80;21524;-68
2022/03/04 06:00:33;;;;;;;33.20;18.00;;;;;;;-0.14;80.03;95302.48;1790479;80;21068;-69
2022/03/04 06:02:59;;;;;;;28.00;17.10;;;;;;;-0.13;80.18;95304.20;1789896;80;20978;-72
2022/03/04 06:05:26;;;;;;;28.07;15.73;;;;;;;-0.10;80.21;95313.33;1789312;80;21097;-69
2022/03/04 06:07:52;;;;;;;29.80;18.17;;;;;;;-0.11;80.30;95313.77;1789350;80;21069;-74
2022/03/04 06:10:19;;;;;;;31.10;17.47;;;;;;;-0.02;80.12;95311.77;1789397;80;21536;-68
2022/03/04 06:12:46;;;;;;;35.03;17.73;;;;;;;0.03;79.90;95318.34;1790707;80;20987;-70
2022/03/04 06:15:12;;;;;;;24.80;15.63;;;;;;;0.10;79.86;95317.57;1790907;80;21010;-77
2022/03/04 06:17:48;;;;;;;32.33;17.70;;;;;;;0.16;79.66;95321.16;1789356;80;20978;-75
2022/03/04 06:20:17;;;;;;;42.63;20.37;;;;;;;0.24;79.36;95321.71;1778177;80;21116;-74
2022/03/04 06:22:45;;;;;;;42.07;21.87;;;;;;;0.32;79.34;95320.97;1790575;80;21010;-77
2022/03/04 06:25:14;;;;;;;29.67;16.50;;;;;;;0.43;78.90;95325.93;1790634;80;21014;-76
2022/03/04 06:28:03;;;;;;;41.80;20.57;;;;;;;0.50;78.47;95330.77;1787312;80;21132;-69
2022/03/04 06:30:34;;;;;;;34.67;19.90;;;;;;;0.54;78.35;95326.52;1778102;80;21524;-68
2022/03/04 06:35:46;;;;;;;33.53;18.30;;;;;;;0.67;77.99;95324.55;1775500;80;21436;-68
2022/03/04 06:38:14;;;;;;;31.77;16.93;;;;;;;0.79;78.42;95318.24;1776888;80;20975;-68
2022/03/04 06:40:41;;;;;;;26.50;16.47;;;;;;;0.94;77.76;95321.92;1776188;80;21045;-74
2022/03/04 06:43:09;;;;;;;29.37;17.13;;;;;;;0.98;77.12;95316.80;1774522;80;20958;-70
2022/03/04 06:45:38;;;;;;;27.67;16.83;;;;;;;0.98;77.20;95320.69;1772202;80;21472;-70
2022/03/04 06:48:04;;;;;;;33.73;18.67;;;;;;;1.00;77.12;95326.75;1772249;81;20970;-71
2022/03/04 06:50:31;;;;;;;33.37;19.70;;;;;;;1.11;77.24;95325.62;1771376;81;21578;-74
2022/03/04 06:52:58;;;;;;;36.90;21.90;;;;;;;1.20;76.44;95323.56;1770387;81;21132;-69
2022/03/04 06:55:24;;;;;;;36.87;22.83;;;;;;;1.33;76.38;95330.65;1771242;81;21028;-70
2022/03/04 06:57:51;;;;;;;28.87;17.33;;;;;;;1.42;76.05;95327.31;1770872;81;21523;-74
2022/03/04 07:00:18;;;;;;;37.50;20.33;;;;;;;1.35;74.33;95328.08;1771780;81;21076;-71
2022/03/04 07:02:45;;;;;;;32.73;20.30;;;;;;;1.42;74.97;95332.08;1771834;81;21081;-68
2022/03/04 07:05:12;;;;;;;29.07;18.50;;;;;;;1.57;75.02;95322.72;1771805;81;21590;-68
2022/03/04 07:07:39;;;;;;;23.67;14.67;;;;;;;1.70;74.39;95326.77;1772294;80;21001;-70
2022/03/04 07:10:08;;;;;;;42.43;19.07;;;;;;;1.73;73.62;95331.99;1772038;81;21018;-67
2022/03/04 07:12:36;;;;;;;38.80;20.63;;;;;;;1.70;73.61;95320.70;1772133;81;21528;-68
2022/03/04 07:15:04;;;;;;;33.47;17.37;;;;;;;1.81;73.48;95328.61;1771827;80;20990;-67
2022/03/04 07:17:31;;;;;;;24.97;15.93;;;;;;;1.86;73.37;95326.92;1771149;81;21617;-68
2022/03/04 07:19:58;;;;;;;27.53;16.57;;;;;;;1.98;73.16;95330.09;1771445;81;21087;-68
2022/03/04 07:22:24;;;;;;;30.43;17.67;;;;;;;1.91;72.27;95330.02;1770846;81;21076;-67
2022/03/04 07:24:51;;;;;;;30.67;18.00;;;;;;;1.89;72.28;95328.25;1770858;81;21020;-70
2022/03/04 07:27:18;;;;;;;29.07;17.37;;;;;;;1.93;72.52;95334.81;1771865;81;20981;-68
2022/03/04 07:29:44;;;;;;;25.70;15.07;;;;;;;1.96;71.57;95333.97;1770567;81;21601;-69
2022/03/04 07:32:13;;;;;;;26.77;16.37;;;;;;;1.89;71.85;95332.16;1771142;81;21069;-69
2022/03/04 07:34:39;;;;;;;27.77;16.70;;;;;;;1.94;73.10;95333.97;1771567;80;21010;-71
2022/03/04 07:37:06;;;;;;;26.70;16.90;;;;;;;2.01;72.55;95333.58;1771247;81;20974;-70
2022/03/04 07:39:33;;;;;;;28.43;17.53;;;;;;;2.13;72.41;95332.41;1771303;81;21013;-75
2022/03/04 07:42:01;;;;;;;26.93;16.13;;;;;;;2.18;72.00;95331.59;1770868;81;21064;-69
2022/03/04 07:44:28;;;;;;;32.30;20.30;;;;;;;2.27;71.87;95337.77;1771987;80;21483;-70
2022/03/04 07:46:55;;;;;;;30.93;17.37;;;;;;;2.35;71.76;95333.92;1770623;81;21091;-69
2022/03/04 07:49:22;;;;;;;26.83;15.73;;;;;;;2.43;71.54;95330.95;1772310;80;21567;-70
2022/03/04 07:51:48;;;;;;;29.90;15.70;;;;;;;2.49;70.96;95331.42;1780518;80;21118;-73
2022/03/04 07:54:18;;;;;;;24.17;14.93;;;;;;;2.56;70.12;95334.52;1736174;82;21121;-74
2022/03/04 07:56:44;;;;;;;29.33;18.37;;;;;;;2.56;67.93;95331.48;1723648;81;21034;-71
2022/03/04 07:59:11;;;;;;;25.77;15.47;;;;;;;2.59;67.72;95332.80;1721474;82;21093;-69
2022/03/04 08:01:38;;;;;;;21.97;15.07;;;;;;;2.57;66.81;95333.25;1713425;82;21580;-70
2022/03/04 08:04:06;;;;;;;23.90;13.37;;;;;;;2.56;66.19;95343.20;1715676;83;22183;-72
2022/03/04 08:06:35;;;;;;;22.27;13.17;;;;;;;2.65;65.59;95338.95;1776282;80;21072;-69
2022/03/04 08:09:02;;;;;;;20.80;13.80;;;;;;;2.65;65.07;95334.61;1771555;80;21022;-68
2022/03/04 08:11:29;;;;;;;22.23;13.07;;;;;;;2.69;65.59;95341.56;1776498;80;20994;-68
2022/03/04 08:13:55;;;;;;;19.70;12.97;;;;;;;2.76;65.75;95339.89;1774465;80;21038;-72
2022/03/04 08:16:24;;;;;;;23.33;13.57;;;;;;;2.81;64.08;95339.05;1736544;82;21036;-71
2022/03/04 08:18:51;;;;;;;23.57;14.30;;;;;;;2.78;63.38;95346.85;1736756;82;21102;-65
2022/03/04 08:21:18;;;;;;;18.67;10.90;;;;;;;2.81;63.42;95341.66;1737177;82;20999;-68
2022/03/04 08:23:46;;;;;;;20.87;11.67;;;;;;;2.82;63.53;95346.43;1737250;82;21052;-70
2022/03/04 08:26:13;;;;;;;20.17;11.73;;;;;;;2.89;63.44;95340.84;1737817;82;21058;-69
2022/03/04 08:28:40;;;;;;;17.63;11.17;;;;;;;2.94;62.90;95336.09;1737619;82;21002;-71
2022/03/04 08:31:11;;;;;;;22.50;12.47;;;;;;;2.96;62.29;95339.59;1737079;81;21028;-71
2022/03/04 08:33:35;;;;;;;17.60;10.37;;;;;;;3.02;62.65;95340.05;1752874;81;21026;-72
2022/03/04 08:36:04;;;;;;;19.13;12.47;;;;;;;3.03;62.25;95340.08;1759291;80;20991;-71
2022/03/04 08:38:32;;;;;;;19.80;12.53;;;;;;;3.14;62.44;95347.95;1764569;80;21121;-72
2022/03/04 08:41:00;;;;;;;20.47;11.20;;;;;;;3.17;61.05;95344.49;1754778;81;20951;-73
2022/03/04 08:43:27;;;;;;;18.20;12.03;;;;;;;3.18;61.73;95344.95;1763183;80;21019;-69
2022/03/04 08:45:54;;;;;;;18.43;10.70;;;;;;;3.18;60.70;95344.52;1772023;80;20989;-69
2022/03/04 08:48:23;;;;;;;34.70;18.27;;;;;;;3.19;61.51;95351.46;1733795;82;21000;-69
2022/03/04 08:50:49;;;;;;;22.60;12.73;;;;;;;3.17;60.99;95344.49;1738618;82;21007;-75
2022/03/04 08:53:16;;;;;;;19.97;11.60;;;;;;;3.17;60.54;95343.19;1756622;81;20998;-71
2022/03/04 08:55:44;;;;;;;20.63;11.83;;;;;;;3.06;59.96;95345.73;1753290;81;21489;-74
2022/03/04 08:58:11;;;;;;;25.17;13.73;;;;;;;3.08;60.72;95344.02;1749373;81;21119;-71
2022/03/04 09:00:38;;;;;;;22.07;10.03;;;;;;;3.05;60.13;95347.92;1759796;80;21002;-70
2022/03/04 09:03:05;;;;;;;23.07;12.57;;;;;;;3.01;60.53;95340.48;1763975;81;21144;-68
2022/03/04 09:05:32;;;;;;;22.23;14.27;;;;;;;2.96;59.65;95350.45;1757786;81;21001;-67
2022/03/04 09:08:01;;;;;;;17.37;10.90;;;;;;;2.92;60.44;95357.36;1761914;81;20995;-68
2022/03/04 09:10:27;;;;;;;23.77;13.50;;;;;;;2.82;59.95;95352.95;1765813;81;21064;-70
2022/03/04 09:12:54;;;;;;;22.37;13.43;;;;;;;2.78;60.96;95356.41;1770853;80;21010;-71
2022/03/04 09:15:21;;;;;;;18.97;11.97;;;;;;;2.69;61.26;95358.93;1766116;80;20974;-72
2022/03/04 09:17:48;;;;;;;17.50;11.10;;;;;;;2.66;61.01;95358.48;1772529;80;21533;-68
2022/03/04 09:20:16;;;;;;;18.40;11.93;;;;;;;2.63;61.49;95359.77;1769841;80;21057;-70
2022/03/04 09:22:43;;;;;;;17.33;9.73;;;;;;;2.54;61.15;95367.05;1768001;80;21055;-67
2022/03/04 09:25:10;;;;;;;19.33;11.77;;;;;;;2.50;61.81;95378.76;1766989;80;21413;-74
2022/03/04 09:27:36;;;;;;;16.73;10.87;;;;;;;2.49;61.61;95377.86;1768496;80;21144;-69
2022/03/04 09:30:04;;;;;;;20.60;11.77;;;;;;;2.44;61.07;95374.34;1739098;82;20963;-66
2022/03/04 09:32:31;;;;;;;18.77;10.83;;;;;;;2.36;61.57;95371.67;1746853;82;21011;-67
2022/03/04 09:34:58;;;;;;;15.73;10.13;;;;;;;2.32;60.63;95372.52;1748779;82;21023;-69
2022/03/04 09:37:25;;;;;;;19.73;10.83;;;;;;;2.31;60.45;95372.49;1775207;80;21046;-69
2022/03/04 09:39:51;;;;;;;18.50;10.10;;;;;;;2.28;61.29;95375.94;1762375;81;21076;-66
2022/03/04 09:42:22;;;;;;;17.53;11.53;;;;;;;2.32;61.36;95378.16;1767056;80;21065;-69
2022/03/04 09:44:49;;;;;;;20.53;11.23;;;;;;;2.28;59.92;95378.55;1757320;81;21535;-70
2022/03/04 09:47:20;;;;;;;16.77;10.47;;;;;;;2.31;60.40;95373.36;1759390;81;21097;-68
2022/03/04 09:49:52;;;;;;;18.67;11.30;;;;;;;2.32;59.35;95379.03;1760270;81;21499;-69
2022/03/04 09:52:20;;;;;;;20.67;12.80;;;;;;;2.29;60.24;95375.10;1781268;80;21004;-70
2022/03/04 09:54:52;;;;;;;22.43;12.83;;;;;;;2.28;60.43;95378.55;1767815;81;21085;-72
2022/03/04 09:57:20;;;;;;;24.80;13.73;;;;;;;2.33;60.64;95370.78;1786919;80;21101;-66
2022/03/04 09:59:46;;;;;;;23.17;12.87;;;;;;;2.36;59.81;95373.41;1786598;80;21121;-66
2022/03/04 10:02:14;;;;;;;19.77;11.27;;;;;;;2.35;60.21;95370.38;1784660;80;21084;-70
2022/03/04 10:04:41;;;;;;;19.97;11.43;;;;;;;2.37;59.74;95376.04;1767235;80;21114;-67
2022/03/04 10:07:13;;;;;;;17.77;10.87;;;;;;;2.36;59.22;95377.31;1759665;81;21101;-73
2022/03/04 10:09:47;;;;;;;18.83;11.53;;;;;;;2.33;59.39;95378.16;1761459;81;21007;-66
2022/03/04 10:12:16;;;;;;;19.10;11.40;;;;;;;2.33;58.05;95379.89;1760983;81;21615;-67
2022/03/04 10:15:06;;;;;;;16.90;10.97;;;;;;;2.37;58.77;95377.77;1761318;81;21015;-67
2022/03/04 10:17:36;;;;;;;13.47;8.43;;;;;;;2.40;58.11;95373.89;1761764;81;21468;-66
2022/03/04 10:20:12;;;;;;;21.07;9.67;;;;;;;2.38;57.90;95375.17;1755161;81;21042;-66
2022/03/04 10:22:45;;;;;;;18.07;10.53;;;;;;;2.45;57.90;95371.34;1755579;82;21069;-66
2022/03/04 10:25:24;;;;;;;15.63;9.30;;;;;;;2.51;57.95;95366.17;1755425;82;21076;-66
2022/03/04 10:27:52;;;;;;;14.20;8.73;;;;;;;2.56;57.88;95369.25;1754650;82;21104;-68
2022/03/04 10:30:31;;;;;;;18.30;9.90;;;;;;;2.65;57.62;95358.48;1755097;82;21010;-66
2022/03/04 10:33:11;;;;;;;19.20;10.17;;;;;;;2.83;58.36;95355.14;1740561;82;20991;-66
2022/03/04 10:35:39;;;;;;;17.50;10.07;;;;;;;2.90;56.54;95355.61;1706883;83;21576;-66
2022/03/04 10:38:06;;;;;;;14.37;9.83;;;;;;;2.91;56.92;95359.53;1729299;83;21070;-67
2022/03/04 10:40:42;;;;;;;16.60;9.50;;;;;;;2.87;56.30;95356.45;1744830;82;21001;-66
2022/03/04 10:43:06;;;;;;;15.40;9.90;;;;;;;2.89;56.64;95354.73;1727176;83;21047;-66
2022/03/04 10:45:42;;;;;;;15.93;9.90;;;;;;;2.92;56.35;95361.70;1727226;83;21011;-66
2022/03/04 10:48:17;;;;;;;15.87;9.90;;;;;;;2.87;55.76;95356.45;1727223;83;21087;-66
2022/03/04 10:50:50;;;;;;;15.23;9.50;;;;;;;2.88;56.55;95356.91;1726772;83;21030;-67
2022/03/04 10:53:22;;;;;;;20.48;13.53;;;;;;;2.93;55.91;95359.13;1787629;80;21017;-66
2022/03/04 10:55:52;;;;;;;18.10;10.47;;;;;;;2.94;55.67;95361.30;1786441;80;21088;-67
2022/03/04 10:58:22;;;;;;;15.97;10.40;;;;;;;2.89;56.18;95357.78;1757080;80;21509;-66
2022/03/04 11:00:58;;;;;;;20.83;10.90;;;;;;;2.93;57.01;95355.22;1787773;80;21088;-66
2022/03/04 11:03:31;;;;;;;14.30;8.60;;;;;;;2.90;54.87;95356.50;1787317;80;21020;-66
2022/03/04 11:06:02;;;;;;;19.02;10.63;;;;;;;2.86;55.22;95352.56;1745445;82;21001;-65
2022/03/04 11:08:29;;;;;;;19.67;9.47;;;;;;;2.95;55.29;95351.33;1727274;83;21504;-66
2022/03/04 11:10:57;;;;;;;16.67;10.43;;;;;;;2.87;55.23;95351.69;1727025;83;21051;-66
2022/03/04 11:13:25;;;;;;;16.87;9.40;;;;;;;2.90;55.13;95345.18;1727181;83;21513;-66
2022/03/04 11:15:53;;;;;;;18.67;10.20;;;;;;;2.97;55.71;95341.77;1727130;83;21062;-66
2022/03/04 11:18:23;;;;;;;13.87;8.90;;;;;;;2.97;54.15;95341.36;1787551;80;21530;-66
2022/03/04 11:20:54;;;;;;;13.83;7.50;;;;;;;2.91;53.15;95341.73;1787690;80;20972;-66
2022/03/04 11:23:27;;;;;;;13.83;8.77;;;;;;;2.87;50.39;95343.86;1787676;80;21055;-66
2022/03/04 11:26:04;;;;;;;16.55;8.98;;;;;;;2.80;50.88;95346.88;1786878;80;20969;-66
2022/03/04 11:28:42;;;;;;;12.00;7.37;;;;;;;2.74;51.85;95348.11;1787850;80;21073;-66
2022/03/04 11:31:13;;;;;;;15.73;9.53;;;;;;;2.80;52.42;95346.88;1787795;80;21505;-66
2022/03/04 11:33:58;;;;;;;17.23;10.17;;;;;;;2.91;52.91;95341.30;1787177;80;21019;-66